sensor_id;sensor_type;location;lat;lon;timestamp;P1;durP1;ratioP1;P2;durP2;ratioP2
54197;SDS011;40105;52.366;17.000;2023-03-01T00:02:01;174.93;;;54.97;;
54197;SDS011;40105;52.366;17.000;2023-03-01T00:04:26;182.27;;;48.37;;
54197;SDS011;40105;52.366;17.000;2023-03-01T00:06:52;168.75;;;48.47;;
54197;SDS011;40105;52.366;17.000;2023-03-01T00:09:17;165.93;;;49.10;;
54197;SDS011;40105;52.366;17.000;2023-03-01T00:33:19;151.45;;;47.90;;
54197;SDS011;40105;52.366;17.000;2023-03-01T00:35:44;179.07;;;50.67;;
54197;SDS011;40105;52.366;17.000;2023-03-01T00:38:10;153.13;;;48.37;;
54197;SDS011;40105;52.366;17.000;2023-03-01T00:40:35;149.63;;;44.60;;
54197;SDS011;40105;52.366;17.000;2023-03-01T00:43:00;150.27;;;50.75;;
54197;SDS011;40105;52.366;17.000;2023-03-01T00:45:26;147.55;;;47.92;;
54197;SDS011;40105;52.366;17.000;2023-03-01T00:47:51;153.77;;;48.40;;
54197;SDS011;40105;52.366;17.000;2023-03-01T00:50:18;145.50;;;48.35;;
54197;SDS011;40105;52.366;17.000;2023-03-01T00:52:44;147.23;;;48.20;;
54197;SDS011;40105;52.366;17.000;2023-03-01T00:55:09;149.63;;;48.05;;
54197;SDS011;40105;52.366;17.000;2023-03-01T00:57:35;181.25;;;56.08;;
54197;SDS011;40105;52.366;17.000;2023-03-01T01:00:00;173.70;;;53.93;;
54197;SDS011;40105;52.366;17.000;2023-03-01T01:02:25;164.23;;;48.83;;
54197;SDS011;40105;52.366;17.000;2023-03-01T01:04:51;144.73;;;49.00;;
54197;SDS011;40105;52.366;17.000;2023-03-01T01:07:16;186.35;;;52.50;;
54197;SDS011;40105;52.366;17.000;2023-03-01T01:09:41;142.00;;;49.13;;
54197;SDS011;40105;52.366;17.000;2023-03-01T01:12:07;169.15;;;51.33;;
54197;SDS011;40105;52.366;17.000;2023-03-01T01:14:32;138.65;;;48.95;;
54197;SDS011;40105;52.366;17.000;2023-03-01T01:16:57;169.07;;;50.57;;
54197;SDS011;40105;52.366;17.000;2023-03-01T01:19:23;160.52;;;50.97;;
54197;SDS011;40105;52.366;17.000;2023-03-01T01:21:48;165.80;;;52.10;;
54197;SDS011;40105;52.366;17.000;2023-03-01T01:24:14;142.13;;;50.38;;
54197;SDS011;40105;52.366;17.000;2023-03-01T01:26:39;147.23;;;48.80;;
54197;SDS011;40105;52.366;17.000;2023-03-01T01:29:05;156.23;;;47.25;;
54197;SDS011;40105;52.366;17.000;2023-03-01T01:31:31;150.75;;;50.92;;
54197;SDS011;40105;52.366;17.000;2023-03-01T01:33:56;152.27;;;49.92;;
54197;SDS011;40105;52.366;17.000;2023-03-01T01:36:22;137.95;;;46.83;;
54197;SDS011;40105;52.366;17.000;2023-03-01T01:38:47;157.15;;;49.58;;
54197;SDS011;40105;52.366;17.000;2023-03-01T01:41:13;188.45;;;50.15;;
54197;SDS011;40105;52.366;17.000;2023-03-01T01:43:40;163.88;;;48.92;;
54197;SDS011;40105;52.366;17.000;2023-03-01T01:48:41;153.65;;;50.90;;
54197;SDS011;40105;52.366;17.000;2023-03-01T01:51:10;153.30;;;49.42;;
54197;SDS011;40105;52.366;17.000;2023-03-01T01:53:36;135.85;;;48.17;;
54197;SDS011;40105;52.366;17.000;2023-03-01T01:56:01;170.98;;;49.13;;
54197;SDS011;40105;52.366;17.000;2023-03-01T01:58:27;160.07;;;48.22;;
54197;SDS011;40105;52.366;17.000;2023-03-01T02:00:54;137.63;;;45.45;;
54197;SDS011;40105;52.366;17.000;2023-03-01T02:03:23;158.65;;;49.03;;
54197;SDS011;40105;52.366;17.000;2023-03-01T02:05:56;160.65;;;47.90;;
54197;SDS011;40105;52.366;17.000;2023-03-01T02:08:24;159.88;;;53.33;;
54197;SDS011;40105;52.366;17.000;2023-03-01T02:10:50;159.50;;;49.72;;
54197;SDS011;40105;52.366;17.000;2023-03-01T02:13:16;156.15;;;49.13;;
54197;SDS011;40105;52.366;17.000;2023-03-01T02:15:41;184.47;;;53.57;;
54197;SDS011;40105;52.366;17.000;2023-03-01T02:18:09;185.48;;;53.60;;
54197;SDS011;40105;52.366;17.000;2023-03-01T02:20:51;159.60;;;54.78;;
54197;SDS011;40105;52.366;17.000;2023-03-01T02:23:21;174.30;;;54.33;;
54197;SDS011;40105;52.366;17.000;2023-03-01T02:25:50;155.32;;;51.00;;
54197;SDS011;40105;52.366;17.000;2023-03-01T02:30:47;146.07;;;48.78;;
54197;SDS011;40105;52.366;17.000;2023-03-01T02:33:31;134.48;;;47.50;;
54197;SDS011;40105;52.366;17.000;2023-03-01T02:36:40;165.00;;;49.85;;
54197;SDS011;40105;52.366;17.000;2023-03-01T02:38:47;155.50;;;47.92;;
54197;SDS011;40105;52.366;17.000;2023-03-01T02:41:13;172.40;;;51.85;;
54197;SDS011;40105;52.366;17.000;2023-03-01T02:43:40;163.73;;;53.90;;
54197;SDS011;40105;52.366;17.000;2023-03-01T02:46:07;161.13;;;50.47;;
54197;SDS011;40105;52.366;17.000;2023-03-01T02:48:40;147.70;;;46.28;;
54197;SDS011;40105;52.366;17.000;2023-03-01T02:51:07;129.50;;;45.83;;
54197;SDS011;40105;52.366;17.000;2023-03-01T02:56:02;138.80;;;44.03;;
54197;SDS011;40105;52.366;17.000;2023-03-01T02:58:27;110.45;;;43.13;;
54197;SDS011;40105;52.366;17.000;2023-03-01T03:00:53;147.77;;;41.23;;
54197;SDS011;40105;52.366;17.000;2023-03-01T03:03:19;145.50;;;49.55;;
54197;SDS011;40105;52.366;17.000;2023-03-01T03:05:44;146.65;;;47.00;;
54197;SDS011;40105;52.366;17.000;2023-03-01T03:08:09;154.70;;;44.40;;
54197;SDS011;40105;52.366;17.000;2023-03-01T03:10:37;146.48;;;47.28;;
54197;SDS011;40105;52.366;17.000;2023-03-01T03:13:03;162.27;;;49.15;;
54197;SDS011;40105;52.366;17.000;2023-03-01T03:15:29;157.13;;;47.08;;
54197;SDS011;40105;52.366;17.000;2023-03-01T03:17:54;140.50;;;47.90;;
54197;SDS011;40105;52.366;17.000;2023-03-01T03:20:20;142.88;;;48.05;;
54197;SDS011;40105;52.366;17.000;2023-03-01T03:22:47;146.77;;;49.15;;
54197;SDS011;40105;52.366;17.000;2023-03-01T03:25:12;147.90;;;47.90;;
54197;SDS011;40105;52.366;17.000;2023-03-01T03:27:38;142.50;;;47.95;;
54197;SDS011;40105;52.366;17.000;2023-03-01T03:30:04;125.53;;;45.28;;
54197;SDS011;40105;52.366;17.000;2023-03-01T03:32:33;149.75;;;49.22;;
54197;SDS011;40105;52.366;17.000;2023-03-01T03:34:59;150.82;;;44.22;;
54197;SDS011;40105;52.366;17.000;2023-03-01T03:37:24;135.73;;;42.67;;
54197;SDS011;40105;52.366;17.000;2023-03-01T03:40:16;144.38;;;43.90;;
54197;SDS011;40105;52.366;17.000;2023-03-01T03:42:41;134.00;;;43.23;;
54197;SDS011;40105;52.366;17.000;2023-03-01T03:45:06;139.27;;;45.40;;
54197;SDS011;40105;52.366;17.000;2023-03-01T03:47:31;157.65;;;45.58;;
54197;SDS011;40105;52.366;17.000;2023-03-01T03:49:56;150.17;;;46.60;;
54197;SDS011;40105;52.366;17.000;2023-03-01T03:52:22;166.53;;;48.10;;
54197;SDS011;40105;52.366;17.000;2023-03-01T03:54:47;119.47;;;41.73;;
54197;SDS011;40105;52.366;17.000;2023-03-01T03:57:12;174.73;;;45.87;;
54197;SDS011;40105;52.366;17.000;2023-03-01T03:59:37;146.10;;;42.33;;
54197;SDS011;40105;52.366;17.000;2023-03-01T04:02:02;183.23;;;50.27;;
54197;SDS011;40105;52.366;17.000;2023-03-01T04:04:27;123.03;;;40.87;;
54197;SDS011;40105;52.366;17.000;2023-03-01T04:06:53;121.20;;;45.67;;
54197;SDS011;40105;52.366;17.000;2023-03-01T04:09:18;114.50;;;36.97;;
54197;SDS011;40105;52.366;17.000;2023-03-01T04:11:43;111.70;;;38.77;;
54197;SDS011;40105;52.366;17.000;2023-03-01T04:14:09;113.25;;;43.85;;
54197;SDS011;40105;52.366;17.000;2023-03-01T04:16:34;149.93;;;43.70;;
54197;SDS011;40105;52.366;17.000;2023-03-01T04:18:59;96.70;;;38.90;;
54197;SDS011;40105;52.366;17.000;2023-03-01T04:21:25;146.45;;;46.83;;
54197;SDS011;40105;52.366;17.000;2023-03-01T04:23:50;112.35;;;41.65;;
54197;SDS011;40105;52.366;17.000;2023-03-01T04:26:17;152.18;;;44.65;;
54197;SDS011;40105;52.366;17.000;2023-03-01T04:28:42;138.17;;;45.50;;
54197;SDS011;40105;52.366;17.000;2023-03-01T04:31:11;128.13;;;43.60;;
54197;SDS011;40105;52.366;17.000;2023-03-01T04:33:45;132.15;;;46.45;;
54197;SDS011;40105;52.366;17.000;2023-03-01T04:36:10;114.78;;;42.83;;
54197;SDS011;40105;52.366;17.000;2023-03-01T04:38:36;132.55;;;43.22;;
54197;SDS011;40105;52.366;17.000;2023-03-01T04:41:02;144.77;;;44.35;;
54197;SDS011;40105;52.366;17.000;2023-03-01T04:43:28;150.38;;;46.15;;
54197;SDS011;40105;52.366;17.000;2023-03-01T04:45:53;142.73;;;48.33;;
54197;SDS011;40105;52.366;17.000;2023-03-01T04:48:18;136.80;;;46.00;;
54197;SDS011;40105;52.366;17.000;2023-03-01T04:50:43;114.77;;;39.53;;
54197;SDS011;40105;52.366;17.000;2023-03-01T04:53:09;134.53;;;44.33;;
54197;SDS011;40105;52.366;17.000;2023-03-01T04:55:34;110.53;;;43.77;;
54197;SDS011;40105;52.366;17.000;2023-03-01T04:57:59;122.40;;;45.08;;
54197;SDS011;40105;52.366;17.000;2023-03-01T05:00:24;114.67;;;39.53;;
54197;SDS011;40105;52.366;17.000;2023-03-01T05:02:50;140.20;;;41.60;;
54197;SDS011;40105;52.366;17.000;2023-03-01T05:05:18;127.82;;;41.30;;
54197;SDS011;40105;52.366;17.000;2023-03-01T05:07:43;126.75;;;42.58;;
54197;SDS011;40105;52.366;17.000;2023-03-01T05:10:08;127.70;;;40.17;;
54197;SDS011;40105;52.366;17.000;2023-03-01T05:12:34;144.80;;;42.95;;
54197;SDS011;40105;52.366;17.000;2023-03-01T05:14:59;130.97;;;39.57;;
54197;SDS011;40105;52.366;17.000;2023-03-01T05:17:24;121.80;;;42.83;;
54197;SDS011;40105;52.366;17.000;2023-03-01T05:19:49;126.87;;;38.63;;
54197;SDS011;40105;52.366;17.000;2023-03-01T05:22:15;146.73;;;45.63;;
54197;SDS011;40105;52.366;17.000;2023-03-01T05:24:41;145.05;;;47.30;;
54197;SDS011;40105;52.366;17.000;2023-03-01T05:27:06;114.13;;;41.60;;
54197;SDS011;40105;52.366;17.000;2023-03-01T05:29:31;130.27;;;40.17;;
54197;SDS011;40105;52.366;17.000;2023-03-01T05:31:59;101.35;;;36.92;;
54197;SDS011;40105;52.366;17.000;2023-03-01T05:34:26;119.25;;;41.30;;
54197;SDS011;40105;52.366;17.000;2023-03-01T05:36:52;108.90;;;38.50;;
54197;SDS011;40105;52.366;17.000;2023-03-01T05:39:18;125.13;;;40.08;;
54197;SDS011;40105;52.366;17.000;2023-03-01T05:41:43;118.50;;;37.58;;
54197;SDS011;40105;52.366;17.000;2023-03-01T05:44:09;109.05;;;36.78;;
54197;SDS011;40105;52.366;17.000;2023-03-01T05:46:34;112.63;;;37.17;;
54197;SDS011;40105;52.366;17.000;2023-03-01T05:48:59;111.83;;;39.93;;
54197;SDS011;40105;52.366;17.000;2023-03-01T05:51:25;116.20;;;40.58;;
54197;SDS011;40105;52.366;17.000;2023-03-01T05:53:51;133.32;;;42.72;;
54197;SDS011;40105;52.366;17.000;2023-03-01T05:56:16;133.02;;;41.72;;
54197;SDS011;40105;52.366;17.000;2023-03-01T05:58:41;153.07;;;45.40;;
54197;SDS011;40105;52.366;17.000;2023-03-01T06:01:10;104.57;;;39.43;;
54197;SDS011;40105;52.366;17.000;2023-03-01T06:03:36;120.18;;;39.10;;
54197;SDS011;40105;52.366;17.000;2023-03-01T06:06:01;110.85;;;37.08;;
54197;SDS011;40105;52.366;17.000;2023-03-01T06:08:27;122.05;;;41.45;;
54197;SDS011;40105;52.366;17.000;2023-03-01T06:10:52;144.73;;;46.97;;
54197;SDS011;40105;52.366;17.000;2023-03-01T06:13:17;129.87;;;37.07;;
54197;SDS011;40105;52.366;17.000;2023-03-01T06:15:42;135.90;;;39.77;;
54197;SDS011;40105;52.366;17.000;2023-03-01T06:18:08;113.40;;;37.53;;
54197;SDS011;40105;52.366;17.000;2023-03-01T06:20:33;116.18;;;39.97;;
54197;SDS011;40105;52.366;17.000;2023-03-01T06:22:58;114.43;;;36.33;;
54197;SDS011;40105;52.366;17.000;2023-03-01T06:25:25;125.70;;;42.30;;
54197;SDS011;40105;52.366;17.000;2023-03-01T06:27:51;122.22;;;44.30;;
54197;SDS011;40105;52.366;17.000;2023-03-01T06:30:17;112.38;;;41.72;;
54197;SDS011;40105;52.366;17.000;2023-03-01T06:32:43;109.47;;;43.20;;
54197;SDS011;40105;52.366;17.000;2023-03-01T06:35:11;127.80;;;44.85;;
54197;SDS011;40105;52.366;17.000;2023-03-01T06:37:37;115.00;;;42.20;;
54197;SDS011;40105;52.366;17.000;2023-03-01T06:40:03;109.28;;;38.03;;
54197;SDS011;40105;52.366;17.000;2023-03-01T06:42:36;120.90;;;43.28;;
54197;SDS011;40105;52.366;17.000;2023-03-01T06:45:02;108.05;;;37.65;;
54197;SDS011;40105;52.366;17.000;2023-03-01T06:47:27;146.85;;;50.63;;
54197;SDS011;40105;52.366;17.000;2023-03-01T06:49:53;139.45;;;45.45;;
54197;SDS011;40105;52.366;17.000;2023-03-01T06:52:18;120.63;;;43.70;;
54197;SDS011;40105;52.366;17.000;2023-03-01T06:54:43;139.83;;;43.13;;
54197;SDS011;40105;52.366;17.000;2023-03-01T06:57:08;104.35;;;41.72;;
54197;SDS011;40105;52.366;17.000;2023-03-01T06:59:33;126.50;;;39.33;;
54197;SDS011;40105;52.366;17.000;2023-03-01T07:01:58;142.10;;;41.80;;
54197;SDS011;40105;52.366;17.000;2023-03-01T07:04:23;117.67;;;40.83;;
54197;SDS011;40105;52.366;17.000;2023-03-01T07:06:49;92.67;;;38.07;;
54197;SDS011;40105;52.366;17.000;2023-03-01T07:09:20;93.00;;;37.33;;
54197;SDS011;40105;52.366;17.000;2023-03-01T07:11:46;108.65;;;38.90;;
54197;SDS011;40105;52.366;17.000;2023-03-01T07:14:12;108.63;;;40.23;;
54197;SDS011;40105;52.366;17.000;2023-03-01T07:16:37;127.87;;;43.73;;
54197;SDS011;40105;52.366;17.000;2023-03-01T07:19:02;114.67;;;38.77;;
54197;SDS011;40105;52.366;17.000;2023-03-01T07:21:27;101.73;;;38.90;;
54197;SDS011;40105;52.366;17.000;2023-03-01T07:23:52;132.63;;;44.77;;
54197;SDS011;40105;52.366;17.000;2023-03-01T07:26:17;111.07;;;39.87;;
54197;SDS011;40105;52.366;17.000;2023-03-01T07:28:43;116.40;;;44.47;;
54197;SDS011;40105;52.366;17.000;2023-03-01T07:31:08;99.00;;;38.83;;
54197;SDS011;40105;52.366;17.000;2023-03-01T07:33:33;108.13;;;36.67;;
54197;SDS011;40105;52.366;17.000;2023-03-01T07:35:59;106.43;;;35.53;;
54197;SDS011;40105;52.366;17.000;2023-03-01T07:38:24;92.80;;;32.33;;
54197;SDS011;40105;52.366;17.000;2023-03-01T07:40:50;91.65;;;31.90;;
54197;SDS011;40105;52.366;17.000;2023-03-01T07:43:15;89.40;;;35.30;;
54197;SDS011;40105;52.366;17.000;2023-03-01T07:45:40;83.33;;;32.03;;
54197;SDS011;40105;52.366;17.000;2023-03-01T07:48:05;89.35;;;31.40;;
54197;SDS011;40105;52.366;17.000;2023-03-01T07:50:30;77.33;;;28.97;;
54197;SDS011;40105;52.366;17.000;2023-03-01T07:52:55;82.27;;;25.90;;
54197;SDS011;40105;52.366;17.000;2023-03-01T07:55:21;97.22;;;30.58;;
54197;SDS011;40105;52.366;17.000;2023-03-01T07:57:46;89.83;;;30.87;;
54197;SDS011;40105;52.366;17.000;2023-03-01T08:00:11;80.97;;;26.50;;
54197;SDS011;40105;52.366;17.000;2023-03-01T08:02:37;73.00;;;25.48;;
54197;SDS011;40105;52.366;17.000;2023-03-01T08:05:02;78.30;;;24.77;;
54197;SDS011;40105;52.366;17.000;2023-03-01T08:07:27;65.13;;;21.73;;
54197;SDS011;40105;52.366;17.000;2023-03-01T08:09:52;67.32;;;23.70;;
54197;SDS011;40105;52.366;17.000;2023-03-01T08:12:17;72.03;;;24.83;;
54197;SDS011;40105;52.366;17.000;2023-03-01T08:14:43;63.13;;;21.90;;
54197;SDS011;40105;52.366;17.000;2023-03-01T08:17:08;80.93;;;21.83;;
54197;SDS011;40105;52.366;17.000;2023-03-01T08:19:33;71.07;;;22.80;;
54197;SDS011;40105;52.366;17.000;2023-03-01T08:21:59;61.08;;;18.05;;
54197;SDS011;40105;52.366;17.000;2023-03-01T08:24:25;64.33;;;18.30;;
54197;SDS011;40105;52.366;17.000;2023-03-01T08:26:50;55.75;;;19.13;;
54197;SDS011;40105;52.366;17.000;2023-03-01T08:29:15;38.83;;;14.90;;
54197;SDS011;40105;52.366;17.000;2023-03-01T08:31:40;53.83;;;21.23;;
54197;SDS011;40105;52.366;17.000;2023-03-01T08:34:10;55.70;;;20.83;;
54197;SDS011;40105;52.366;17.000;2023-03-01T08:36:36;48.72;;;18.48;;
54197;SDS011;40105;52.366;17.000;2023-03-01T08:39:02;40.58;;;14.68;;
54197;SDS011;40105;52.366;17.000;2023-03-01T08:41:28;47.40;;;14.50;;
54197;SDS011;40105;52.366;17.000;2023-03-01T08:43:53;36.20;;;16.20;;
54197;SDS011;40105;52.366;17.000;2023-03-01T08:46:23;49.90;;;17.05;;
54197;SDS011;40105;52.366;17.000;2023-03-01T08:48:48;46.10;;;17.43;;
54197;SDS011;40105;52.366;17.000;2023-03-01T08:51:14;60.00;;;17.73;;
54197;SDS011;40105;52.366;17.000;2023-03-01T08:53:40;43.17;;;16.92;;
54197;SDS011;40105;52.366;17.000;2023-03-01T08:56:06;37.05;;;15.55;;
54197;SDS011;40105;52.366;17.000;2023-03-01T08:58:31;53.45;;;17.83;;
54197;SDS011;40105;52.366;17.000;2023-03-01T09:00:56;52.17;;;19.48;;
54197;SDS011;40105;52.366;17.000;2023-03-01T09:03:22;51.37;;;18.93;;
54197;SDS011;40105;52.366;17.000;2023-03-01T09:05:47;65.05;;;17.73;;
54197;SDS011;40105;52.366;17.000;2023-03-01T09:08:15;67.70;;;22.95;;
54197;SDS011;40105;52.366;17.000;2023-03-01T09:10:40;50.67;;;21.53;;
54197;SDS011;40105;52.366;17.000;2023-03-01T09:13:05;78.80;;;25.47;;
54197;SDS011;40105;52.366;17.000;2023-03-01T09:15:30;72.50;;;23.00;;
54197;SDS011;40105;52.366;17.000;2023-03-01T09:17:55;73.10;;;24.57;;
54197;SDS011;40105;52.366;17.000;2023-03-01T09:20:20;57.97;;;22.77;;
54197;SDS011;40105;52.366;17.000;2023-03-01T09:22:46;59.33;;;20.40;;
54197;SDS011;40105;52.366;17.000;2023-03-01T09:25:11;62.40;;;21.75;;
54197;SDS011;40105;52.366;17.000;2023-03-01T09:27:37;64.90;;;25.33;;
54197;SDS011;40105;52.366;17.000;2023-03-01T09:30:02;69.17;;;26.33;;
54197;SDS011;40105;52.366;17.000;2023-03-01T09:32:29;49.38;;;18.83;;
54197;SDS011;40105;52.366;17.000;2023-03-01T09:34:54;51.88;;;16.27;;
54197;SDS011;40105;52.366;17.000;2023-03-01T09:37:26;53.55;;;19.05;;
54197;SDS011;40105;52.366;17.000;2023-03-01T09:39:51;46.80;;;17.38;;
54197;SDS011;40105;52.366;17.000;2023-03-01T09:42:16;44.33;;;13.77;;
54197;SDS011;40105;52.366;17.000;2023-03-01T09:47:12;43.42;;;16.17;;
54197;SDS011;40105;52.366;17.000;2023-03-01T09:49:41;32.33;;;12.65;;
54197;SDS011;40105;52.366;17.000;2023-03-01T09:52:21;38.97;;;13.20;;
54197;SDS011;40105;52.366;17.000;2023-03-01T09:54:49;53.42;;;16.23;;
54197;SDS011;40105;52.366;17.000;2023-03-01T09:57:19;41.15;;;12.52;;
54197;SDS011;40105;52.366;17.000;2023-03-01T09:59:55;40.53;;;11.90;;
54197;SDS011;40105;52.366;17.000;2023-03-01T10:03:06;35.13;;;11.35;;
54197;SDS011;40105;52.366;17.000;2023-03-01T10:07:42;26.50;;;9.95;;
54197;SDS011;40105;52.366;17.000;2023-03-01T10:10:10;19.02;;;7.85;;
54197;SDS011;40105;52.366;17.000;2023-03-01T10:12:40;24.63;;;8.18;;
54197;SDS011;40105;52.366;17.000;2023-03-01T10:15:18;20.35;;;9.30;;
54197;SDS011;40105;52.366;17.000;2023-03-01T10:17:57;17.83;;;6.85;;
54197;SDS011;40105;52.366;17.000;2023-03-01T10:20:36;20.25;;;8.38;;
54197;SDS011;40105;52.366;17.000;2023-03-01T10:23:02;18.92;;;7.22;;
54197;SDS011;40105;52.366;17.000;2023-03-01T10:28:19;22.63;;;8.90;;
54197;SDS011;40105;52.366;17.000;2023-03-01T10:30:46;20.92;;;8.52;;
54197;SDS011;40105;52.366;17.000;2023-03-01T10:33:18;26.77;;;9.10;;
54197;SDS011;40105;52.366;17.000;2023-03-01T10:35:45;21.00;;;7.95;;
54197;SDS011;40105;52.366;17.000;2023-03-01T10:38:13;30.77;;;10.37;;
54197;SDS011;40105;52.366;17.000;2023-03-01T10:40:55;26.75;;;9.90;;
54197;SDS011;40105;52.366;17.000;2023-03-01T10:43:24;26.42;;;9.02;;
54197;SDS011;40105;52.366;17.000;2023-03-01T10:45:51;22.83;;;8.80;;
54197;SDS011;40105;52.366;17.000;2023-03-01T10:50:42;20.87;;;8.17;;
54197;SDS011;40105;52.366;17.000;2023-03-01T10:53:18;23.67;;;8.45;;
54197;SDS011;40105;52.366;17.000;2023-03-01T10:55:44;24.55;;;9.13;;
54197;SDS011;40105;52.366;17.000;2023-03-01T10:58:19;19.57;;;8.33;;
54197;SDS011;40105;52.366;17.000;2023-03-01T11:00:55;29.73;;;9.05;;
54197;SDS011;40105;52.366;17.000;2023-03-01T11:03:24;19.48;;;7.50;;
54197;SDS011;40105;52.366;17.000;2023-03-01T11:05:52;15.82;;;6.38;;
54197;SDS011;40105;52.366;17.000;2023-03-01T11:08:29;19.75;;;7.13;;
54197;SDS011;40105;52.366;17.000;2023-03-01T11:11:03;16.63;;;6.78;;
54197;SDS011;40105;52.366;17.000;2023-03-01T11:13:28;29.65;;;10.45;;
54197;SDS011;40105;52.366;17.000;2023-03-01T11:16:03;20.83;;;8.07;;
54197;SDS011;40105;52.366;17.000;2023-03-01T11:18:30;24.73;;;9.45;;
54197;SDS011;40105;52.366;17.000;2023-03-01T11:20:55;16.00;;;6.47;;
54197;SDS011;40105;52.366;17.000;2023-03-01T11:23:21;13.85;;;6.50;;
54197;SDS011;40105;52.366;17.000;2023-03-01T11:26:00;25.33;;;5.40;;
54197;SDS011;40105;52.366;17.000;2023-03-01T11:28:26;20.20;;;5.22;;
54197;SDS011;40105;52.366;17.000;2023-03-01T11:36:11;19.25;;;6.03;;
54197;SDS011;40105;52.366;17.000;2023-03-01T11:38:38;19.08;;;5.13;;
54197;SDS011;40105;52.366;17.000;2023-03-01T11:41:14;24.83;;;5.18;;
54197;SDS011;40105;52.366;17.000;2023-03-01T11:43:47;11.23;;;5.10;;
54197;SDS011;40105;52.366;17.000;2023-03-01T11:56:28;17.52;;;4.80;;
54197;SDS011;40105;52.366;17.000;2023-03-01T12:07:01;11.23;;;4.97;;
54197;SDS011;40105;52.366;17.000;2023-03-01T12:17:57;10.60;;;3.63;;
54197;SDS011;40105;52.366;17.000;2023-03-01T12:23:12;10.88;;;4.32;;
54197;SDS011;40105;52.366;17.000;2023-03-01T12:25:48;10.02;;;4.20;;
54197;SDS011;40105;52.366;17.000;2023-03-01T12:28:29;9.63;;;3.95;;
54197;SDS011;40105;52.366;17.000;2023-03-01T12:33:45;11.93;;;4.68;;
54197;SDS011;40105;52.366;17.000;2023-03-01T12:38:41;9.15;;;3.63;;
54197;SDS011;40105;52.366;17.000;2023-03-01T12:41:40;9.05;;;4.57;;
54197;SDS011;40105;52.366;17.000;2023-03-01T12:45:00;21.33;;;6.03;;
54197;SDS011;40105;52.366;17.000;2023-03-01T12:47:07;16.10;;;5.55;;
54197;SDS011;40105;52.366;17.000;2023-03-01T12:49:40;10.40;;;3.88;;
54197;SDS011;40105;52.366;17.000;2023-03-01T12:52:11;12.15;;;5.38;;
54197;SDS011;40105;52.366;17.000;2023-03-01T12:54:38;12.55;;;5.05;;
54197;SDS011;40105;52.366;17.000;2023-03-01T13:00:17;18.65;;;6.00;;
54197;SDS011;40105;52.366;17.000;2023-03-01T13:03:09;18.48;;;5.78;;
54197;SDS011;40105;52.366;17.000;2023-03-01T13:05:42;12.43;;;4.80;;
54197;SDS011;40105;52.366;17.000;2023-03-01T13:08:15;13.70;;;5.10;;
54197;SDS011;40105;52.366;17.000;2023-03-01T13:10:48;14.15;;;5.32;;
54197;SDS011;40105;52.366;17.000;2023-03-01T13:13:18;12.98;;;5.45;;
54197;SDS011;40105;52.366;17.000;2023-03-01T13:15:44;12.18;;;4.97;;
54197;SDS011;40105;52.366;17.000;2023-03-01T13:31:01;11.70;;;4.95;;
54197;SDS011;40105;52.366;17.000;2023-03-01T13:35:53;18.52;;;5.90;;
54197;SDS011;40105;52.366;17.000;2023-03-01T13:41:02;15.02;;;5.40;;
54197;SDS011;40105;52.366;17.000;2023-03-01T13:43:32;11.13;;;4.32;;
54197;SDS011;40105;52.366;17.000;2023-03-01T13:45:58;30.27;;;9.77;;
54197;SDS011;40105;52.366;17.000;2023-03-01T13:48:25;27.58;;;8.45;;
54197;SDS011;40105;52.366;17.000;2023-03-01T13:50:51;29.17;;;10.45;;
54197;SDS011;40105;52.366;17.000;2023-03-01T13:53:18;16.15;;;5.82;;
54197;SDS011;40105;52.366;17.000;2023-03-01T13:55:45;21.90;;;5.63;;
54197;SDS011;40105;52.366;17.000;2023-03-01T13:58:33;16.77;;;5.13;;
54197;SDS011;40105;52.366;17.000;2023-03-01T14:01:07;12.60;;;5.53;;
54197;SDS011;40105;52.366;17.000;2023-03-01T14:03:45;35.60;;;7.55;;
54197;SDS011;40105;52.366;17.000;2023-03-01T14:06:13;19.83;;;4.73;;
54197;SDS011;40105;52.366;17.000;2023-03-01T14:08:40;24.67;;;6.93;;
54197;SDS011;40105;52.366;17.000;2023-03-01T14:11:25;12.88;;;4.85;;
54197;SDS011;40105;52.366;17.000;2023-03-01T14:19:19;13.70;;;5.50;;
54197;SDS011;40105;52.366;17.000;2023-03-01T14:21:58;10.90;;;5.43;;
54197;SDS011;40105;52.366;17.000;2023-03-01T14:24:25;19.33;;;5.82;;
54197;SDS011;40105;52.366;17.000;2023-03-01T14:26:52;14.20;;;5.28;;
54197;SDS011;40105;52.366;17.000;2023-03-01T14:29:24;14.90;;;5.13;;
54197;SDS011;40105;52.366;17.000;2023-03-01T14:31:49;11.85;;;5.03;;
54197;SDS011;40105;52.366;17.000;2023-03-01T14:34:21;30.20;;;5.70;;
54197;SDS011;40105;52.366;17.000;2023-03-01T14:36:46;15.40;;;5.53;;
54197;SDS011;40105;52.366;17.000;2023-03-01T14:39:23;17.07;;;5.77;;
54197;SDS011;40105;52.366;17.000;2023-03-01T14:41:49;13.30;;;4.68;;
54197;SDS011;40105;52.366;17.000;2023-03-01T14:44:16;30.23;;;6.60;;
54197;SDS011;40105;52.366;17.000;2023-03-01T14:46:44;13.00;;;4.90;;
54197;SDS011;40105;52.366;17.000;2023-03-01T14:49:14;14.30;;;5.20;;
54197;SDS011;40105;52.366;17.000;2023-03-01T14:51:41;9.70;;;4.80;;
54197;SDS011;40105;52.366;17.000;2023-03-01T14:54:26;11.02;;;5.28;;
54197;SDS011;40105;52.366;17.000;2023-03-01T14:56:52;20.60;;;5.70;;
54197;SDS011;40105;52.366;17.000;2023-03-01T14:59:20;13.95;;;5.20;;
54197;SDS011;40105;52.366;17.000;2023-03-01T15:01:46;13.88;;;5.38;;
54197;SDS011;40105;52.366;17.000;2023-03-01T15:04:12;11.20;;;4.93;;
54197;SDS011;40105;52.366;17.000;2023-03-01T15:06:38;17.20;;;4.80;;
54197;SDS011;40105;52.366;17.000;2023-03-01T15:09:03;15.40;;;6.17;;
54197;SDS011;40105;52.366;17.000;2023-03-01T15:11:32;19.35;;;6.45;;
54197;SDS011;40105;52.366;17.000;2023-03-01T15:13:58;25.67;;;7.32;;
54197;SDS011;40105;52.366;17.000;2023-03-01T15:16:24;16.00;;;6.65;;
54197;SDS011;40105;52.366;17.000;2023-03-01T15:18:54;14.52;;;6.00;;
54197;SDS011;40105;52.366;17.000;2023-03-01T15:21:40;11.75;;;4.25;;
54197;SDS011;40105;52.366;17.000;2023-03-01T15:24:07;14.70;;;4.65;;
54197;SDS011;40105;52.366;17.000;2023-03-01T15:26:37;11.50;;;5.28;;
54197;SDS011;40105;52.366;17.000;2023-03-01T15:29:04;21.08;;;5.45;;
54197;SDS011;40105;52.366;17.000;2023-03-01T15:31:31;11.15;;;5.22;;
54197;SDS011;40105;52.366;17.000;2023-03-01T15:34:11;11.68;;;4.05;;
54197;SDS011;40105;52.366;17.000;2023-03-01T15:36:44;14.95;;;6.03;;
54197;SDS011;40105;52.366;17.000;2023-03-01T15:41:53;12.48;;;5.22;;
54197;SDS011;40105;52.366;17.000;2023-03-01T15:44:31;12.85;;;5.50;;
54197;SDS011;40105;52.366;17.000;2023-03-01T15:46:57;12.18;;;4.78;;
54197;SDS011;40105;52.366;17.000;2023-03-01T15:51:59;18.27;;;6.70;;
54197;SDS011;40105;52.366;17.000;2023-03-01T15:54:25;18.97;;;5.87;;
54197;SDS011;40105;52.366;17.000;2023-03-01T15:56:51;16.20;;;5.95;;
54197;SDS011;40105;52.366;17.000;2023-03-01T15:59:16;22.40;;;6.47;;
54197;SDS011;40105;52.366;17.000;2023-03-01T16:01:42;15.40;;;5.50;;